sensor_id;sensor_type;location;lat;lon;timestamp;pressure;altitude;pressure_sealevel;temperature;humidity
18850;BME280;4989;48.772;9.154;2023-02-15T00:01:10;99324.50;;;3.25;100.00
18850;BME280;4989;48.772;9.154;2023-02-15T00:06:13;99321.81;;;3.25;100.00
18850;BME280;4989;48.772;9.154;2023-02-15T00:11:17;99311.59;;;3.71;100.00
18850;BME280;4989;48.772;9.154;2023-02-15T00:16:42;99307.50;;;3.08;100.00
18850;BME280;4989;48.772;9.154;2023-02-15T00:21:45;99297.38;;;3.30;100.00
18850;BME280;4989;48.772;9.154;2023-02-15T00:26:48;99296.50;;;3.26;100.00
18850;BME280;4989;48.772;9.154;2023-02-15T00:31:52;99299.00;;;3.06;100.00
18850;BME280;4989;48.772;9.154;2023-02-15T00:36:54;99298.78;;;2.87;100.00
18850;BME280;4989;48.772;9.154;2023-02-15T00:41:57;99289.66;;;2.75;100.00
18850;BME280;4989;48.772;9.154;2023-02-15T00:47:00;99292.66;;;2.74;100.00
18850;BME280;4989;48.772;9.154;2023-02-15T00:52:02;99295.44;;;2.65;100.00
18850;BME280;4989;48.772;9.154;2023-02-15T00:57:05;99297.69;;;3.00;100.00
18850;BME280;4989;48.772;9.154;2023-02-15T01:02:07;99298.56;;;2.92;100.00
18850;BME280;4989;48.772;9.154;2023-02-15T01:07:10;99290.84;;;3.43;100.00
18850;BME280;4989;48.772;9.154;2023-02-15T01:12:12;99289.03;;;3.07;100.00
18850;BME280;4989;48.772;9.154;2023-02-15T01:17:15;99283.94;;;2.65;100.00
18850;BME280;4989;48.772;9.154;2023-02-15T01:22:18;99289.63;;;2.51;100.00
18850;BME280;4989;48.772;9.154;2023-02-15T01:27:21;99295.44;;;2.78;100.00
18850;BME280;4989;48.772;9.154;2023-02-15T01:32:24;99296.91;;;2.63;100.00
18850;BME280;4989;48.772;9.154;2023-02-15T01:37:27;99288.50;;;2.77;100.00
18850;BME280;4989;48.772;9.154;2023-02-15T01:42:30;99286.25;;;2.42;100.00
18850;BME280;4989;48.772;9.154;2023-02-15T01:47:39;99278.91;;;2.63;100.00
18850;BME280;4989;48.772;9.154;2023-02-15T01:52:54;99272.63;;;2.22;100.00
18850;BME280;4989;48.772;9.154;2023-02-15T01:57:57;99279.59;;;2.72;100.00
18850;BME280;4989;48.772;9.154;2023-02-15T02:03:01;99274.53;;;2.83;100.00
18850;BME280;4989;48.772;9.154;2023-02-15T02:08:04;99272.19;;;2.57;100.00
18850;BME280;4989;48.772;9.154;2023-02-15T02:13:07;99268.59;;;2.41;100.00
18850;BME280;4989;48.772;9.154;2023-02-15T02:23:51;99264.69;;;2.38;100.00
18850;BME280;4989;48.772;9.154;2023-02-15T02:50:27;99262.06;;;1.93;100.00
18850;BME280;4989;48.772;9.154;2023-02-15T02:55:56;99267.03;;;2.15;100.00
18850;BME280;4989;48.772;9.154;2023-02-15T03:01:12;99254.88;;;2.67;100.00
18850;BME280;4989;48.772;9.154;2023-02-15T03:06:23;99245.81;;;2.47;100.00
18850;BME280;4989;48.772;9.154;2023-02-15T03:11:28;99243.94;;;3.12;100.00
18850;BME280;4989;48.772;9.154;2023-02-15T03:16:32;99250.56;;;3.87;100.00
18850;BME280;4989;48.772;9.154;2023-02-15T03:26:45;99237.63;;;3.77;100.00
18850;BME280;4989;48.772;9.154;2023-02-15T03:31:53;99243.06;;;3.64;100.00
18850;BME280;4989;48.772;9.154;2023-02-15T03:42:20;99243.56;;;3.98;100.00
18850;BME280;4989;48.772;9.154;2023-02-15T03:47:31;99247.53;;;3.73;100.00
18850;BME280;4989;48.772;9.154;2023-02-15T03:52:36;99236.47;;;4.06;100.00
18850;BME280;4989;48.772;9.154;2023-02-15T03:57:39;99249.38;;;4.00;100.00
18850;BME280;4989;48.772;9.154;2023-02-15T04:03:22;99246.81;;;3.19;100.00
18850;BME280;4989;48.772;9.154;2023-02-15T04:08:29;99251.41;;;2.66;100.00
18850;BME280;4989;48.772;9.154;2023-02-15T04:13:50;99254.00;;;3.15;100.00
18850;BME280;4989;48.772;9.154;2023-02-15T04:18:58;99244.97;;;3.36;100.00
18850;BME280;4989;48.772;9.154;2023-02-15T04:24:20;99242.59;;;3.47;100.00
18850;BME280;4989;48.772;9.154;2023-02-15T04:29:41;99238.38;;;3.61;100.00
18850;BME280;4989;48.772;9.154;2023-02-15T04:34:43;99233.06;;;4.09;100.00
18850;BME280;4989;48.772;9.154;2023-02-15T04:39:46;99232.09;;;4.49;100.00
18850;BME280;4989;48.772;9.154;2023-02-15T04:44:48;99231.28;;;4.64;100.00
18850;BME280;4989;48.772;9.154;2023-02-15T04:49:51;99220.56;;;4.48;100.00
18850;BME280;4989;48.772;9.154;2023-02-15T04:54:54;99197.91;;;4.69;100.00
18850;BME280;4989;48.772;9.154;2023-02-15T04:59:56;99198.16;;;4.79;100.00
18850;BME280;4989;48.772;9.154;2023-02-15T05:05:01;99206.16;;;4.76;100.00
18850;BME280;4989;48.772;9.154;2023-02-15T05:10:04;99208.94;;;4.12;100.00
18850;BME280;4989;48.772;9.154;2023-02-15T05:15:06;99218.50;;;3.94;100.00
18850;BME280;4989;48.772;9.154;2023-02-15T05:20:09;99229.50;;;3.45;100.00
18850;BME280;4989;48.772;9.154;2023-02-15T05:25:12;99222.81;;;3.83;100.00
18850;BME280;4989;48.772;9.154;2023-02-15T05:30:33;99215.78;;;4.42;100.00
18850;BME280;4989;48.772;9.154;2023-02-15T05:35:36;99219.31;;;4.62;100.00
18850;BME280;4989;48.772;9.154;2023-02-15T05:40:38;99221.88;;;4.74;100.00
18850;BME280;4989;48.772;9.154;2023-02-15T05:45:45;99222.97;;;4.53;100.00
18850;BME280;4989;48.772;9.154;2023-02-15T05:51:00;99225.75;;;4.41;100.00
18850;BME280;4989;48.772;9.154;2023-02-15T05:56:05;99221.06;;;4.38;100.00
18850;BME280;4989;48.772;9.154;2023-02-15T06:01:13;99213.06;;;4.57;100.00
18850;BME280;4989;48.772;9.154;2023-02-15T06:06:15;99222.44;;;4.64;100.00
18850;BME280;4989;48.772;9.154;2023-02-15T06:11:18;99220.75;;;4.40;100.00
18850;BME280;4989;48.772;9.154;2023-02-15T06:16:20;99223.34;;;4.36;100.00
18850;BME280;4989;48.772;9.154;2023-02-15T06:21:23;99228.38;;;4.22;100.00
18850;BME280;4989;48.772;9.154;2023-02-15T06:26:25;99229.16;;;4.22;100.00
18850;BME280;4989;48.772;9.154;2023-02-15T06:31:28;99235.91;;;4.48;100.00
18850;BME280;4989;48.772;9.154;2023-02-15T06:36:31;99238.97;;;4.46;100.00
18850;BME280;4989;48.772;9.154;2023-02-15T06:41:34;99244.88;;;4.36;100.00
18850;BME280;4989;48.772;9.154;2023-02-15T06:46:36;99248.28;;;4.33;100.00
18850;BME280;4989;48.772;9.154;2023-02-15T06:51:39;99251.09;;;4.08;100.00
18850;BME280;4989;48.772;9.154;2023-02-15T06:56:41;99251.69;;;3.86;100.00
18850;BME280;4989;48.772;9.154;2023-02-15T07:01:45;99248.69;;;4.03;100.00
18850;BME280;4989;48.772;9.154;2023-02-15T07:06:48;99246.09;;;4.23;100.00
18850;BME280;4989;48.772;9.154;2023-02-15T07:11:50;99254.94;;;4.39;100.00
18850;BME280;4989;48.772;9.154;2023-02-15T07:17:11;99261.06;;;4.71;100.00
18850;BME280;4989;48.772;9.154;2023-02-15T07:22:35;99272.47;;;4.65;100.00
18850;BME280;4989;48.772;9.154;2023-02-15T07:27:38;99275.34;;;4.24;100.00
18850;BME280;4989;48.772;9.154;2023-02-15T07:32:41;99269.50;;;4.38;100.00
18850;BME280;4989;48.772;9.154;2023-02-15T07:38:06;99267.97;;;4.37;100.00
18850;BME280;4989;48.772;9.154;2023-02-15T07:43:09;99263.97;;;4.31;100.00
18850;BME280;4989;48.772;9.154;2023-02-15T07:48:11;99254.69;;;4.28;100.00
18850;BME280;4989;48.772;9.154;2023-02-15T07:53:14;99249.38;;;4.32;100.00
18850;BME280;4989;48.772;9.154;2023-02-15T07:58:16;99245.03;;;4.43;100.00
18850;BME280;4989;48.772;9.154;2023-02-15T08:03:19;99252.66;;;4.41;100.00
18850;BME280;4989;48.772;9.154;2023-02-15T08:08:22;99251.28;;;4.47;100.00
18850;BME280;4989;48.772;9.154;2023-02-15T08:13:34;99262.25;;;4.90;100.00
18850;BME280;4989;48.772;9.154;2023-02-15T08:18:36;99257.34;;;4.76;100.00
18850;BME280;4989;48.772;9.154;2023-02-15T08:23:39;99250.94;;;5.00;100.00
18850;BME280;4989;48.772;9.154;2023-02-15T08:28:42;99254.00;;;5.18;100.00
18850;BME280;4989;48.772;9.154;2023-02-15T08:33:46;99252.31;;;5.48;100.00
18850;BME280;4989;48.772;9.154;2023-02-15T08:38:49;99257.41;;;5.54;100.00
18850;BME280;4989;48.772;9.154;2023-02-15T08:43:57;99248.31;;;5.23;100.00
18850;BME280;4989;48.772;9.154;2023-02-15T08:49:00;99256.69;;;5.57;100.00
18850;BME280;4989;48.772;9.154;2023-02-15T08:54:09;99251.22;;;5.53;100.00
18850;BME280;4989;48.772;9.154;2023-02-15T08:59:21;99246.16;;;5.90;100.00
18850;BME280;4989;48.772;9.154;2023-02-15T09:04:24;99243.31;;;5.83;100.00
18850;BME280;4989;48.772;9.154;2023-02-15T09:09:26;99233.31;;;5.84;100.00
18850;BME280;4989;48.772;9.154;2023-02-15T09:14:29;99233.72;;;6.28;100.00
18850;BME280;4989;48.772;9.154;2023-02-15T09:19:32;99231.56;;;6.91;100.00
18850;BME280;4989;48.772;9.154;2023-02-15T09:24:34;99229.13;;;7.79;89.29
18850;BME280;4989;48.772;9.154;2023-02-15T09:29:37;99240.13;;;7.26;90.41
18850;BME280;4989;48.772;9.154;2023-02-15T09:34:39;99218.88;;;7.62;84.85
18850;BME280;4989;48.772;9.154;2023-02-15T09:39:43;99216.75;;;7.78;90.90
18850;BME280;4989;48.772;9.154;2023-02-15T09:45:12;99204.03;;;8.31;86.53
18850;BME280;4989;48.772;9.154;2023-02-15T09:50:34;99207.31;;;8.51;90.47
18850;BME280;4989;48.772;9.154;2023-02-15T10:06:43;99196.25;;;10.11;89.56
18850;BME280;4989;48.772;9.154;2023-02-15T10:12:14;99196.06;;;13.16;64.15
18850;BME280;4989;48.772;9.154;2023-02-15T10:17:24;99189.22;;;13.01;68.06
18850;BME280;4989;48.772;9.154;2023-02-15T10:27:50;99192.59;;;13.12;61.96
18850;BME280;4989;48.772;9.154;2023-02-15T10:49:08;99163.16;;;11.65;73.37
18850;BME280;4989;48.772;9.154;2023-02-15T10:59:41;99151.19;;;12.11;69.32
18850;BME280;4989;48.772;9.154;2023-02-15T11:16:03;99133.69;;;14.19;63.76
18850;BME280;4989;48.772;9.154;2023-02-15T11:21:30;99138.44;;;14.62;59.10
18850;BME280;4989;48.772;9.154;2023-02-15T11:26:42;99128.00;;;16.77;53.10
18850;BME280;4989;48.772;9.154;2023-02-15T11:37:27;99118.41;;;21.95;37.57
18850;BME280;4989;48.772;9.154;2023-02-15T11:42:32;99121.16;;;22.82;35.55
18850;BME280;4989;48.772;9.154;2023-02-15T11:47:35;99114.59;;;22.41;36.35
18850;BME280;4989;48.772;9.154;2023-02-15T11:52:37;99116.69;;;22.46;35.93
18850;BME280;4989;48.772;9.154;2023-02-15T11:57:44;99125.34;;;23.52;34.64
18850;BME280;4989;48.772;9.154;2023-02-15T12:02:53;99125.63;;;23.89;33.89
18850;BME280;4989;48.772;9.154;2023-02-15T12:08:37;99111.47;;;24.75;32.60
18850;BME280;4989;48.772;9.154;2023-02-15T12:13:59;99116.31;;;24.80;32.78
18850;BME280;4989;48.772;9.154;2023-02-15T12:19:02;99107.88;;;23.66;34.93
18850;BME280;4989;48.772;9.154;2023-02-15T12:24:30;99096.25;;;22.44;36.13
18850;BME280;4989;48.772;9.154;2023-02-15T12:29:57;99087.88;;;22.82;36.51
18850;BME280;4989;48.772;9.154;2023-02-15T12:35:20;99089.09;;;23.26;35.26
18850;BME280;4989;48.772;9.154;2023-02-15T12:40:29;99089.06;;;20.80;38.25
18850;BME280;4989;48.772;9.154;2023-02-15T12:45:35;99091.84;;;19.57;41.07
18850;BME280;4989;48.772;9.154;2023-02-15T12:50:39;99088.78;;;20.41;41.16
18850;BME280;4989;48.772;9.154;2023-02-15T13:01:17;99050.16;;;18.52;43.51
18850;BME280;4989;48.772;9.154;2023-02-15T13:06:24;99056.63;;;19.11;42.54
18850;BME280;4989;48.772;9.154;2023-02-15T13:11:30;99048.59;;;19.85;41.48
18850;BME280;4989;48.772;9.154;2023-02-15T13:16:39;99035.09;;;20.05;43.91
18850;BME280;4989;48.772;9.154;2023-02-15T13:21:47;99027.25;;;19.17;45.75
18850;BME280;4989;48.772;9.154;2023-02-15T13:26:54;99028.03;;;20.13;43.79
18850;BME280;4989;48.772;9.154;2023-02-15T13:32:39;99025.53;;;21.46;38.33
18850;BME280;4989;48.772;9.154;2023-02-15T13:49:14;99013.50;;;15.08;52.62
18850;BME280;4989;48.772;9.154;2023-02-15T13:59:45;99004.28;;;13.83;56.20
18850;BME280;4989;48.772;9.154;2023-02-15T14:05:04;98991.19;;;13.50;58.27
18850;BME280;4989;48.772;9.154;2023-02-15T14:26:21;98999.94;;;12.88;61.25
18850;BME280;4989;48.772;9.154;2023-02-15T14:31:47;98992.56;;;12.84;62.67
18850;BME280;4989;48.772;9.154;2023-02-15T14:36:53;98990.97;;;12.60;60.95
18850;BME280;4989;48.772;9.154;2023-02-15T14:42:04;98991.78;;;12.57;60.88
18850;BME280;4989;48.772;9.154;2023-02-15T14:47:22;98984.81;;;12.52;67.70
18850;BME280;4989;48.772;9.154;2023-02-15T14:52:27;98985.59;;;12.53;60.50
18850;BME280;4989;48.772;9.154;2023-02-15T14:57:31;98986.44;;;12.50;60.81
18850;BME280;4989;48.772;9.154;2023-02-15T15:02:49;98989.56;;;12.48;60.63
18850;BME280;4989;48.772;9.154;2023-02-15T15:07:56;98995.88;;;12.42;64.34
18850;BME280;4989;48.772;9.154;2023-02-15T15:23:45;98994.50;;;12.26;61.02
18850;BME280;4989;48.772;9.154;2023-02-15T15:50:21;98993.09;;;11.24;60.98
18850;BME280;4989;48.772;9.154;2023-02-15T15:55:26;98993.22;;;11.07;62.96
18850;BME280;4989;48.772;9.154;2023-02-15T16:00:48;98991.03;;;10.87;63.26
18850;BME280;4989;48.772;9.154;2023-02-15T16:05:52;99000.91;;;10.60;64.65
18850;BME280;4989;48.772;9.154;2023-02-15T16:10:58;98999.03;;;10.42;65.24
18850;BME280;4989;48.772;9.154;2023-02-15T16:16:02;99001.03;;;10.13;66.94
18850;BME280;4989;48.772;9.154;2023-02-15T16:21:05;98994.88;;;9.95;68.53
18850;BME280;4989;48.772;9.154;2023-02-15T16:26:32;98995.34;;;9.72;69.44
18850;BME280;4989;48.772;9.154;2023-02-15T16:31:39;99002.34;;;9.51;70.55
18850;BME280;4989;48.772;9.154;2023-02-15T16:36:41;99010.84;;;9.32;71.34
18850;BME280;4989;48.772;9.154;2023-02-15T16:41:44;99009.31;;;9.38;70.24
18850;BME280;4989;48.772;9.154;2023-02-15T16:46:51;99005.06;;;9.26;71.40
18850;BME280;4989;48.772;9.154;2023-02-15T16:52:05;99010.84;;;9.32;81.10
18850;BME280;4989;48.772;9.154;2023-02-15T16:57:22;99012.78;;;8.99;73.81
18850;BME280;4989;48.772;9.154;2023-02-15T17:02:30;99023.19;;;8.86;75.61
18850;BME280;4989;48.772;9.154;2023-02-15T17:08:42;99023.91;;;8.65;75.38
18850;BME280;4989;48.772;9.154;2023-02-15T17:19:16;99030.13;;;8.69;81.11
18850;BME280;4989;48.772;9.154;2023-02-15T17:24:42;99040.66;;;9.03;76.12
18850;BME280;4989;48.772;9.154;2023-02-15T17:29:50;99041.38;;;8.79;75.78
18850;BME280;4989;48.772;9.154;2023-02-15T17:40:27;99050.13;;;8.40;77.49
18850;BME280;4989;48.772;9.154;2023-02-15T17:45:42;99050.06;;;8.33;82.35
18850;BME280;4989;48.772;9.154;2023-02-15T17:50:45;99046.44;;;8.07;78.35
18850;BME280;4989;48.772;9.154;2023-02-15T17:55:48;99042.94;;;8.03;79.41
18850;BME280;4989;48.772;9.154;2023-02-15T18:00:59;99042.53;;;8.01;79.81
18850;BME280;4989;48.772;9.154;2023-02-15T18:06:22;99047.59;;;8.10;87.23
18850;BME280;4989;48.772;9.154;2023-02-15T18:11:43;99043.66;;;7.93;80.52
18850;BME280;4989;48.772;9.154;2023-02-15T18:16:49;99053.00;;;8.06;81.09
18850;BME280;4989;48.772;9.154;2023-02-15T18:21:52;99053.75;;;7.99;80.61
18850;BME280;4989;48.772;9.154;2023-02-15T18:26:56;99059.19;;;8.03;85.79
18850;BME280;4989;48.772;9.154;2023-02-15T18:31:59;99061.56;;;8.15;86.00
18850;BME280;4989;48.772;9.154;2023-02-15T18:37:04;99056.81;;;7.98;80.18
18850;BME280;4989;48.772;9.154;2023-02-15T18:42:21;99056.72;;;7.84;88.49
18850;BME280;4989;48.772;9.154;2023-02-15T18:47:24;99058.38;;;7.99;99.34
18850;BME280;4989;48.772;9.154;2023-02-15T18:52:32;99059.91;;;7.93;91.73
18850;BME280;4989;48.772;9.154;2023-02-15T18:57:35;99045.66;;;7.51;82.16
18850;BME280;4989;48.772;9.154;2023-02-15T19:02:37;99049.16;;;7.52;83.73
18850;BME280;4989;48.772;9.154;2023-02-15T19:07:40;99043.13;;;7.28;83.67
18850;BME280;4989;48.772;9.154;2023-02-15T19:12:44;99038.38;;;7.11;85.07
18850;BME280;4989;48.772;9.154;2023-02-15T19:17:47;99036.25;;;6.94;85.90
18850;BME280;4989;48.772;9.154;2023-02-15T19:22:52;99037.22;;;7.12;86.65
18850;BME280;4989;48.772;9.154;2023-02-15T19:27:57;99022.34;;;7.36;100.00
18850;BME280;4989;48.772;9.154;2023-02-15T19:32:59;99023.47;;;7.83;95.04
18850;BME280;4989;48.772;9.154;2023-02-15T19:38:07;99018.38;;;7.74;94.37
18850;BME280;4989;48.772;9.154;2023-02-15T19:43:18;99015.00;;;7.85;95.82
18850;BME280;4989;48.772;9.154;2023-02-15T19:48:21;99013.97;;;8.11;92.62
18850;BME280;4989;48.772;9.154;2023-02-15T19:53:26;99017.25;;;7.75;85.47
18850;BME280;4989;48.772;9.154;2023-02-15T19:58:29;99016.78;;;7.18;84.10
18850;BME280;4989;48.772;9.154;2023-02-15T20:03:32;99018.34;;;7.19;83.95
18850;BME280;4989;48.772;9.154;2023-02-15T20:08:34;99013.75;;;7.23;90.59
18850;BME280;4989;48.772;9.154;2023-02-15T20:13:36;99014.28;;;6.99;88.11
18850;BME280;4989;48.772;9.154;2023-02-15T20:18:39;99021.72;;;6.72;89.52
18850;BME280;4989;48.772;9.154;2023-02-15T20:23:45;99023.25;;;6.69;89.78
18850;BME280;4989;48.772;9.154;2023-02-15T20:28:47;99017.75;;;6.62;90.07
18850;BME280;4989;48.772;9.154;2023-02-15T20:33:51;99027.03;;;6.61;100.00
18850;BME280;4989;48.772;9.154;2023-02-15T20:38:55;99013.38;;;6.50;92.32
18850;BME280;4989;48.772;9.154;2023-02-15T20:43:58;99015.72;;;6.52;95.77
18850;BME280;4989;48.772;9.154;2023-02-15T20:49:00;99004.72;;;6.34;91.68
18850;BME280;4989;48.772;9.154;2023-02-15T20:59:30;99000.84;;;6.69;94.54
18850;BME280;4989;48.772;9.154;2023-02-15T21:04:33;98998.50;;;6.63;92.66
18850;BME280;4989;48.772;9.154;2023-02-15T21:09:35;99000.53;;;7.11;100.00
18850;BME280;4989;48.772;9.154;2023-02-15T21:14:38;99002.81;;;7.57;94.00
18850;BME280;4989;48.772;9.154;2023-02-15T21:19:40;98998.03;;;7.40;87.10
18850;BME280;4989;48.772;9.154;2023-02-15T21:24:49;99004.91;;;6.85;86.51
18850;BME280;4989;48.772;9.154;2023-02-15T21:29:52;98992.34;;;7.04;98.04
18850;BME280;4989;48.772;9.154;2023-02-15T21:34:55;98990.03;;;7.06;86.73
18850;BME280;4989;48.772;9.154;2023-02-15T21:39:57;98995.38;;;7.47;92.99
18850;BME280;4989;48.772;9.154;2023-02-15T21:44:59;98986.34;;;7.84;85.90
18850;BME280;4989;48.772;9.154;2023-02-15T21:50:23;98978.47;;;7.57;80.17
18850;BME280;4989;48.772;9.154;2023-02-15T21:55:45;98983.22;;;7.23;91.37
18850;BME280;4989;48.772;9.154;2023-02-15T22:00:47;98990.69;;;7.37;91.72
18850;BME280;4989;48.772;9.154;2023-02-15T22:05:50;98988.72;;;6.89;87.23
18850;BME280;4989;48.772;9.154;2023-02-15T22:10:55;98990.16;;;6.79;93.37
18850;BME280;4989;48.772;9.154;2023-02-15T22:15:58;98993.88;;;7.05;86.48
18850;BME280;4989;48.772;9.154;2023-02-15T22:21:00;98993.13;;;6.67;89.74
18850;BME280;4989;48.772;9.154;2023-02-15T22:26:11;99000.69;;;6.51;100.00
18850;BME280;4989;48.772;9.154;2023-02-15T22:31:20;98997.28;;;6.95;98.28
18850;BME280;4989;48.772;9.154;2023-02-15T22:36:27;99001.50;;;6.55;90.32
18850;BME280;4989;48.772;9.154;2023-02-15T22:41:30;98999.97;;;5.93;91.60
18850;BME280;4989;48.772;9.154;2023-02-15T22:46:32;98998.09;;;5.97;94.73
18850;BME280;4989;48.772;9.154;2023-02-15T22:51:35;98991.97;;;5.78;92.73
18850;BME280;4989;48.772;9.154;2023-02-15T22:56:45;98987.47;;;5.85;96.42
18850;BME280;4989;48.772;9.154;2023-02-15T23:01:49;98990.06;;;6.05;100.00
18850;BME280;4989;48.772;9.154;2023-02-15T23:06:51;99002.22;;;6.18;96.53
18850;BME280;4989;48.772;9.154;2023-02-15T23:11:58;99000.59;;;6.43;100.00
18850;BME280;4989;48.772;9.154;2023-02-15T23:17:01;99003.16;;;6.03;88.18
18850;BME280;4989;48.772;9.154;2023-02-15T23:22:03;99009.03;;;6.38;96.62
18850;BME280;4989;48.772;9.154;2023-02-15T23:27:05;99006.53;;;6.26;85.27
18850;BME280;4989;48.772;9.154;2023-02-15T23:32:26;99007.72;;;5.99;86.66
18850;BME280;4989;48.772;9.154;2023-02-15T23:37:28;99010.22;;;5.84;93.91
18850;BME280;4989;48.772;9.154;2023-02-15T23:42:33;99011.75;;;5.59;92.50
18850;BME280;4989;48.772;9.154;2023-02-15T23:47:36;99019.53;;;6.17;94.60
18850;BME280;4989;48.772;9.154;2023-02-15T23:52:58;99012.31;;;5.94;89.14
18850;BME280;4989;48.772;9.154;2023-02-15T23:58:05;99013.22;;;5.07;93.93
